Time;durP1;ratioP1;P1;durP2;ratioP2;P2;SDS_P1;SDS_P2;PMS_P1;PMS_P2;Temp;Humidity;BMP_temperature;BMP_pressure;BME280_temperature;BME280_humidity;BME280_pressure;Samples;Min_cycle;Max_cycle;Signal;HPM_P1;HPM_P2
2023/05/16 00:00:05;;;;;;;13.32;10.13;;;10.30;99.90;;;;;;5098621;28;20106;-46
2023/05/16 00:02:31;;;;;;;15.60;10.30;;;10.20;99.90;;;;;;5092051;28;20085;-46
2023/05/16 00:04:57;;;;;;;15.43;10.93;;;10.30;99.90;;;;;;5089342;28;20087;-50
2023/05/16 00:07:22;;;;;;;15.77;10.35;;;10.30;99.90;;;;;;5094389;28;20115;-46
2023/05/16 00:09:48;;;;;;;17.30;10.55;;;10.30;99.90;;;;;;5096207;28;20408;-49
2023/05/16 00:12:13;;;;;;;16.92;9.95;;;10.30;99.90;;;;;;5095209;28;20028;-46
2023/05/16 00:14:39;;;;;;;13.68;9.60;;;10.30;99.90;;;;;;5087614;28;20024;-46
2023/05/16 00:17:10;;;;;;;19.63;9.40;;;10.30;99.90;;;;;;5095837;28;20111;-46
2023/05/16 00:19:37;;;;;;;13.85;9.20;;;10.30;99.90;;;;;;5089458;28;20032;-47
2023/05/16 00:22:04;;;;;;;12.95;8.38;;;10.40;99.90;;;;;;5098808;28;20067;-46
2023/05/16 00:24:30;;;;;;;14.25;7.40;;;10.30;99.90;;;;;;5088991;28;20073;-46
2023/05/16 00:26:55;;;;;;;10.35;7.00;;;10.30;99.90;;;;;;5105421;28;20524;-47
2023/05/16 00:29:23;;;;;;;16.02;7.00;;;10.30;99.90;;;;;;5098125;28;20031;-46
2023/05/16 00:31:49;;;;;;;10.80;6.28;;;10.30;99.90;;;;;;5088824;28;20067;-46
2023/05/16 00:34:15;;;;;;;13.40;7.60;;;10.30;99.90;;;;;;5096922;28;20031;-47
2023/05/16 00:36:40;;;;;;;12.02;7.03;;;10.30;99.90;;;;;;5088831;28;20027;-46
2023/05/16 00:39:06;;;;;;;14.63;5.65;;;10.30;99.90;;;;;;5085944;28;20386;-45
2023/05/16 00:41:33;;;;;;;10.43;5.88;;;10.30;99.90;;;;;;5105193;28;20032;-46
2023/05/16 00:43:58;;;;;;;12.52;5.53;;;10.30;99.90;;;;;;5088921;28;20495;-46
2023/05/16 00:46:24;;;;;;;8.63;5.10;;;10.40;99.90;;;;;;5096991;28;20118;-46
2023/05/16 00:48:50;;;;;;;10.93;5.72;;;10.40;99.90;;;;;;5091872;28;20028;-47
2023/05/16 00:51:17;;;;;;;9.75;5.45;;;10.40;99.90;;;;;;5098638;28;20026;-46
2023/05/16 00:53:43;;;;;;;6.78;4.75;;;10.40;99.90;;;;;;5088512;28;20537;-46
2023/05/16 00:56:09;;;;;;;8.63;4.38;;;10.40;99.90;;;;;;5097146;28;20031;-46
2023/05/16 00:58:36;;;;;;;8.13;5.35;;;10.40;99.90;;;;;;5093883;28;20493;-46
2023/05/16 01:01:05;;;;;;;11.27;4.55;;;10.40;99.90;;;;;;5088423;28;20020;-46
2023/05/16 01:03:30;;;;;;;8.95;4.95;;;10.30;99.90;;;;;;5101904;28;20032;-46
2023/05/16 01:05:57;;;;;;;10.15;5.07;;;10.30;99.90;;;;;;5088493;28;20508;-49
2023/05/16 01:08:23;;;;;;;8.70;4.70;;;10.30;99.90;;;;;;5108761;28;20024;-46
2023/05/16 01:10:59;;;;;;;6.53;4.40;;;10.30;99.90;;;;;;5088926;28;20081;-48
2023/05/16 01:13:55;;;;;;;10.00;4.63;;;10.30;99.90;;;;;;5098599;28;20055;-47
2023/05/16 01:16:45;;;;;;;10.00;4.38;;;10.20;99.90;;;;;;5087946;28;20560;-48
2023/05/16 01:19:39;;;;;;;6.68;4.50;;;10.20;99.90;;;;;;5096720;28;20047;-47
2023/05/16 01:22:15;;;;;;;6.40;4.32;;;10.30;99.90;;;;;;5088042;28;20038;-46
2023/05/16 01:25:04;;;;;;;7.38;4.43;;;10.30;99.90;;;;;;5094168;28;20020;-47
2023/05/16 01:27:31;;;;;;;6.10;3.70;;;10.30;99.90;;;;;;5099683;28;20020;-46
2023/05/16 01:29:56;;;;;;;7.88;3.85;;;10.40;99.90;;;;;;5087019;28;20481;-46
2023/05/16 01:32:22;;;;;;;7.43;4.65;;;10.40;99.90;;;;;;5087579;28;20028;-47
2023/05/16 01:34:50;;;;;;;6.65;4.15;;;10.40;99.90;;;;;;5088122;28;20020;-46
2023/05/16 01:37:32;;;;;;;9.95;4.22;;;10.40;99.90;;;;;;5102015;28;20132;-47
2023/05/16 01:40:43;;;;;;;11.10;4.60;;;10.40;99.90;;;;;;5088219;28;20386;-46
2023/05/16 01:43:14;;;;;;;6.68;3.60;;;10.50;99.90;;;;;;5091135;28;20027;-47
2023/05/16 01:45:52;;;;;;;5.80;4.07;;;10.50;99.90;;;;;;5092079;28;20081;-46
2023/05/16 01:48:22;;;;;;;7.47;4.18;;;10.50;99.90;;;;;;5095082;28;20040;-46
2023/05/16 01:50:54;;;;;;;6.35;3.95;;;10.50;99.90;;;;;;5093304;28;20438;-47
2023/05/16 01:53:35;;;;;;;9.75;3.90;;;10.50;99.90;;;;;;5095516;28;20112;-46
2023/05/16 01:56:02;;;;;;;4.80;3.90;;;10.50;99.90;;;;;;5096302;28;20581;-48
2023/05/16 01:58:31;;;;;;;5.63;4.00;;;10.50;99.90;;;;;;5099232;28;20024;-47
2023/05/16 02:01:04;;;;;;;4.77;3.97;;;10.50;99.90;;;;;;5088062;28;20454;-47
2023/05/16 02:03:31;;;;;;;4.70;3.67;;;10.50;99.90;;;;;;5098611;28;20069;-47
2023/05/16 02:05:57;;;;;;;8.43;3.80;;;10.50;99.90;;;;;;5091709;28;20024;-47
2023/05/16 02:08:24;;;;;;;7.28;3.63;;;10.50;99.90;;;;;;5094488;28;20103;-46
2023/05/16 02:10:50;;;;;;;10.18;3.75;;;10.50;99.90;;;;;;5095150;28;20434;-47
2023/05/16 02:13:16;;;;;;;7.30;3.45;;;10.50;99.90;;;;;;5093168;28;20587;-50
2023/05/16 02:15:42;;;;;;;6.68;3.70;;;10.50;99.90;;;;;;5112158;28;20350;-50
2023/05/16 02:18:08;;;;;;;8.50;3.75;;;10.50;99.90;;;;;;5089489;28;20116;-46
2023/05/16 02:20:34;;;;;;;6.20;3.33;;;10.50;99.90;;;;;;5103939;28;20211;-49
2023/05/16 02:23:02;;;;;;;7.88;3.55;;;10.50;99.90;;;;;;5095803;28;20362;-46
2023/05/16 02:25:27;;;;;;;6.80;3.70;;;10.50;99.90;;;;;;5094116;28;20028;-46
2023/05/16 02:27:53;;;;;;;9.52;3.65;;;10.50;99.90;;;;;;5105446;28;20039;-47
2023/05/16 02:30:18;;;;;;;6.88;3.55;;;10.50;99.90;;;;;;5091323;28;20385;-46
2023/05/16 02:32:44;;;;;;;8.45;4.05;;;10.40;99.90;;;;;;5093023;28;20507;-47
2023/05/16 02:35:10;;;;;;;6.95;3.60;;;10.50;99.90;;;;;;5089980;28;20023;-46
2023/05/16 02:37:37;;;;;;;6.68;3.83;;;10.40;99.90;;;;;;5103064;28;20027;-47
2023/05/16 02:40:06;;;;;;;9.27;4.03;;;10.40;99.90;;;;;;5089782;28;20028;-46
2023/05/16 02:42:32;;;;;;;6.17;3.57;;;10.40;99.90;;;;;;5095201;28;20024;-46
2023/05/16 02:44:58;;;;;;;6.63;3.65;;;10.50;99.90;;;;;;5106035;28;20505;-46
2023/05/16 02:47:24;;;;;;;9.80;3.55;;;10.50;99.90;;;;;;5083823;28;20360;-46
2023/05/16 02:49:51;;;;;;;11.45;3.85;;;10.40;99.90;;;;;;5058448;28;20473;-46
2023/05/16 02:52:17;;;;;;;10.25;4.28;;;10.40;99.90;;;;;;5058732;28;20105;-48
2023/05/16 02:54:43;;;;;;;7.40;3.35;;;10.40;99.90;;;;;;5075588;28;20044;-46
2023/05/16 02:57:09;;;;;;;10.68;3.90;;;10.40;99.90;;;;;;5068194;28;20135;-46
2023/05/16 02:59:35;;;;;;;10.50;3.70;;;10.40;99.90;;;;;;5052438;28;20054;-46
2023/05/16 03:02:00;;;;;;;7.47;3.42;;;10.50;99.90;;;;;;5074567;28;20020;-46
2023/05/16 03:04:27;;;;;;;7.70;3.28;;;10.40;99.90;;;;;;5070490;28;20036;-47
2023/05/16 03:06:52;;;;;;;8.85;3.63;;;10.50;99.90;;;;;;5066676;28;20024;-49
2023/05/16 03:09:18;;;;;;;6.85;4.32;;;10.50;99.90;;;;;;5059680;28;20024;-47
2023/05/16 03:11:45;;;;;;;7.22;2.95;;;10.50;99.90;;;;;;5075025;28;20081;-47
2023/05/16 03:14:11;;;;;;;7.60;3.45;;;10.50;99.90;;;;;;5078735;28;20359;-46
2023/05/16 03:16:37;;;;;;;6.95;3.05;;;10.50;99.90;;;;;;5074738;28;20424;-46
2023/05/16 03:19:03;;;;;;;7.28;3.03;;;10.60;99.90;;;;;;5082077;28;20016;-48
2023/05/16 03:21:30;;;;;;;6.57;3.83;;;10.60;99.90;;;;;;5069984;28;20029;-46
2023/05/16 03:23:57;;;;;;;11.85;3.53;;;10.50;99.90;;;;;;5078745;28;20024;-48
2023/05/16 03:26:26;;;;;;;7.28;3.05;;;10.60;99.90;;;;;;5070024;28;20024;-50
2023/05/16 03:28:52;;;;;;;4.97;2.80;;;10.60;99.90;;;;;;5049786;28;20107;-50
2023/05/16 03:31:18;;;;;;;8.25;3.85;;;10.60;99.90;;;;;;5072824;28;20111;-46
2023/05/16 03:33:44;;;;;;;6.50;2.70;;;10.60;99.90;;;;;;5074426;28;20020;-47
2023/05/16 03:36:10;;;;;;;8.10;3.22;;;10.60;99.90;;;;;;5064753;28;20052;-49
2023/05/16 03:38:39;;;;;;;5.72;3.03;;;10.60;99.90;;;;;;5070275;28;20031;-50
2023/05/16 03:41:05;;;;;;;7.43;3.75;;;10.70;99.90;;;;;;5058240;28;20060;-50
2023/05/16 03:43:31;;;;;;;8.07;3.42;;;10.70;99.90;;;;;;5064944;28;20052;-49
2023/05/16 03:45:57;;;;;;;4.72;2.58;;;10.70;99.90;;;;;;5069918;28;20031;-46
2023/05/16 03:48:22;;;;;;;5.35;2.55;;;10.70;99.90;;;;;;5103742;28;20107;-48
2023/05/16 03:50:48;;;;;;;5.65;2.65;;;10.70;99.90;;;;;;5093626;28;20020;-49
2023/05/16 03:53:17;;;;;;;7.00;2.80;;;10.80;99.90;;;;;;5098189;28;20401;-48
2023/05/16 03:55:42;;;;;;;4.00;2.65;;;10.70;99.90;;;;;;5109448;28;20429;-48
2023/05/16 03:58:08;;;;;;;7.10;2.88;;;10.80;99.90;;;;;;5087858;28;20020;-49
2023/05/16 04:00:35;;;;;;;6.80;3.45;;;10.80;99.90;;;;;;5093346;28;20131;-49
2023/05/16 04:03:07;;;;;;;4.43;2.42;;;10.80;99.90;;;;;;5107766;28;20020;-48
2023/05/16 04:05:33;;;;;;;9.95;2.72;;;10.80;99.90;;;;;;5109614;28;20030;-46
2023/05/16 04:07:59;;;;;;;7.22;2.58;;;10.80;99.90;;;;;;5108540;28;20024;-50
2023/05/16 04:10:27;;;;;;;7.35;2.33;;;10.90;99.90;;;;;;5105483;28;20389;-51
2023/05/16 04:12:53;;;;;;;6.03;3.13;;;10.80;99.90;;;;;;5109361;28;20026;-50
2023/05/16 04:15:19;;;;;;;5.65;2.83;;;10.80;99.90;;;;;;5108627;28;20016;-47
2023/05/16 04:17:48;;;;;;;7.07;2.88;;;10.90;99.90;;;;;;5110199;28;20066;-47
2023/05/16 04:20:17;;;;;;;8.18;3.22;;;10.80;99.90;;;;;;5109567;28;20030;-47
2023/05/16 04:22:43;;;;;;;7.72;2.80;;;10.80;99.90;;;;;;5109599;28;20118;-50
2023/05/16 04:25:10;;;;;;;4.88;2.70;;;10.80;99.90;;;;;;5108337;28;20528;-47
2023/05/16 04:27:36;;;;;;;11.55;3.03;;;10.80;99.90;;;;;;5101117;28;20267;-47
2023/05/16 04:30:01;;;;;;;7.32;2.85;;;10.90;99.90;;;;;;5105274;28;20024;-47
2023/05/16 04:32:27;;;;;;;7.07;2.60;;;10.80;99.90;;;;;;5107822;28;20022;-47
2023/05/16 04:34:53;;;;;;;5.97;2.97;;;10.80;99.90;;;;;;5108417;28;20039;-50
2023/05/16 04:37:19;;;;;;;8.32;3.05;;;10.80;99.90;;;;;;5109416;28;20016;-50
2023/05/16 04:39:46;;;;;;;8.98;3.22;;;10.80;99.90;;;;;;5086676;28;20028;-47
2023/05/16 04:42:12;;;;;;;9.13;3.13;;;10.70;99.90;;;;;;5105549;28;20519;-47
2023/05/16 04:44:37;;;;;;;5.25;2.45;;;10.70;99.90;;;;;;5108562;28;20020;-47
2023/05/16 04:47:03;;;;;;;6.55;2.65;;;10.80;99.90;;;;;;5109138;28;20020;-47
2023/05/16 04:49:29;;;;;;;6.90;2.55;;;10.80;99.90;;;;;;5109145;28;20098;-48
2023/05/16 04:51:54;;;;;;;7.95;2.97;;;10.70;99.90;;;;;;5108667;28;20530;-52
2023/05/16 04:54:20;;;;;;;8.55;3.25;;;10.60;99.90;;;;;;5101438;28;20023;-47
2023/05/16 04:56:46;;;;;;;8.60;2.63;;;10.70;99.90;;;;;;5092076;28;20020;-48
2023/05/16 04:59:12;;;;;;;5.13;2.10;;;10.70;99.90;;;;;;5089365;28;20024;-47
2023/05/16 05:01:40;;;;;;;10.27;3.00;;;10.70;99.90;;;;;;5091581;28;20418;-47
2023/05/16 05:04:06;;;;;;;10.68;3.15;;;10.70;99.90;;;;;;5093772;28;20026;-48
2023/05/16 05:06:31;;;;;;;8.43;2.45;;;10.80;99.90;;;;;;5089129;28;20231;-47
2023/05/16 05:08:57;;;;;;;7.90;2.53;;;10.90;99.90;;;;;;5097720;28;20020;-48
2023/05/16 05:11:22;;;;;;;7.82;2.55;;;11.00;99.90;;;;;;5089050;28;20020;-47
2023/05/16 05:13:48;;;;;;;8.18;2.67;;;11.00;99.90;;;;;;5089112;28;20073;-49
2023/05/16 05:16:14;;;;;;;12.05;2.90;;;11.10;99.90;;;;;;5097845;28;20043;-47
2023/05/16 05:18:40;;;;;;;15.02;2.60;;;11.10;99.90;;;;;;5101487;28;20477;-53
2023/05/16 05:21:05;;;;;;;15.35;3.28;;;11.10;99.90;;;;;;5094061;28;20028;-46
2023/05/16 05:23:31;;;;;;;12.80;2.33;;;11.10;99.90;;;;;;5105389;28;20023;-47
2023/05/16 05:25:57;;;;;;;11.63;3.03;;;11.20;99.90;;;;;;5091489;28;20035;-46
2023/05/16 05:28:23;;;;;;;8.93;3.28;;;11.10;99.90;;;;;;5093157;28;20020;-47
2023/05/16 05:30:51;;;;;;;9.63;2.55;;;11.20;99.90;;;;;;5088020;28;20012;-47
2023/05/16 05:33:17;;;;;;;14.23;2.78;;;11.20;99.90;;;;;;5092859;28;20020;-47
2023/05/16 05:35:45;;;;;;;9.50;2.83;;;11.20;99.90;;;;;;5089777;28;20036;-47
2023/05/16 05:38:11;;;;;;;8.70;2.67;;;11.30;99.90;;;;;;5091097;28;20020;-47
2023/05/16 05:40:37;;;;;;;12.68;3.45;;;11.40;99.90;;;;;;5094661;28;20016;-46
2023/05/16 05:43:02;;;;;;;18.42;3.20;;;11.40;99.90;;;;;;5097840;28;20023;-46
2023/05/16 05:45:28;;;;;;;15.57;2.80;;;11.40;99.90;;;;;;5098040;28;20011;-46
2023/05/16 05:47:54;;;;;;;10.80;2.90;;;11.50;99.90;;;;;;5093960;28;20036;-46
2023/05/16 05:50:20;;;;;;;12.07;2.20;;;11.50;99.90;;;;;;5097148;28;20055;-47
2023/05/16 05:52:45;;;;;;;12.18;2.20;;;11.50;99.90;;;;;;5097696;28;20519;-47
2023/05/16 05:55:11;;;;;;;16.27;2.60;;;11.60;99.90;;;;;;5092775;28;20020;-47
2023/05/16 05:57:37;;;;;;;9.82;2.40;;;11.70;99.90;;;;;;5095314;28;20035;-46
2023/05/16 06:00:04;;;;;;;11.20;2.47;;;11.80;99.90;;;;;;5096938;28;20030;-47
2023/05/16 06:02:29;;;;;;;13.25;3.08;;;11.90;99.90;;;;;;5098511;28;20380;-46
2023/05/16 06:04:55;;;;;;;18.23;3.65;;;12.00;99.90;;;;;;5092639;28;20020;-48
2023/05/16 06:07:21;;;;;;;11.50;3.03;;;11.90;99.90;;;;;;5089838;28;20028;-48
2023/05/16 06:09:47;;;;;;;13.60;2.90;;;11.80;99.90;;;;;;5091858;28;20091;-47
2023/05/16 06:12:12;;;;;;;11.02;2.97;;;11.60;99.90;;;;;;5093927;28;20015;-46
2023/05/16 06:14:38;;;;;;;9.60;2.63;;;11.50;99.90;;;;;;5094014;28;20070;-46
2023/05/16 06:17:04;;;;;;;11.88;3.58;;;11.50;99.90;;;;;;5085578;28;20127;-47
2023/05/16 06:19:30;;;;;;;13.10;2.95;;;11.30;99.90;;;;;;5093638;28;20410;-46
2023/05/16 06:21:55;;;;;;;14.77;2.83;;;11.30;99.90;;;;;;5103480;28;20058;-47
2023/05/16 06:24:21;;;;;;;11.95;3.42;;;11.30;99.90;;;;;;5101482;28;20056;-47
2023/05/16 06:26:48;;;;;;;14.73;3.47;;;11.30;99.90;;;;;;5098415;28;20027;-47
2023/05/16 06:29:15;;;;;;;11.95;2.90;;;11.30;99.90;;;;;;5111501;28;20034;-46
2023/05/16 06:31:41;;;;;;;14.10;3.40;;;11.30;99.90;;;;;;5101405;28;20103;-51
2023/05/16 06:34:07;;;;;;;11.35;2.55;;;11.40;99.90;;;;;;5090759;28;20024;-47
2023/05/16 06:36:33;;;;;;;15.25;3.22;;;11.50;99.90;;;;;;5092292;28;20378;-46
2023/05/16 06:38:58;;;;;;;16.30;2.97;;;11.50;99.90;;;;;;5093306;28;20024;-49
2023/05/16 06:41:25;;;;;;;8.05;2.38;;;11.40;99.90;;;;;;5096062;28;20293;-49
2023/05/16 06:43:51;;;;;;;15.68;3.58;;;11.50;99.90;;;;;;5100329;28;20107;-47
2023/05/16 06:46:17;;;;;;;15.15;3.67;;;11.50;99.90;;;;;;5091779;28;20032;-46
2023/05/16 06:48:42;;;;;;;19.75;3.13;;;11.50;99.90;;;;;;5086713;28;20039;-46
2023/05/16 06:51:09;;;;;;;12.05;3.00;;;11.50;99.90;;;;;;5093694;28;20477;-46
2023/05/16 06:53:35;;;;;;;11.18;3.22;;;11.60;99.90;;;;;;5079242;28;20519;-47
2023/05/16 06:56:01;;;;;;;14.25;3.83;;;11.50;99.90;;;;;;5094383;28;20034;-46
2023/05/16 06:58:26;;;;;;;8.15;3.22;;;11.50;99.90;;;;;;5090741;28;20024;-46
2023/05/16 07:00:52;;;;;;;15.40;3.30;;;11.40;99.90;;;;;;5090459;28;20447;-47
2023/05/16 07:03:17;;;;;;;12.85;3.00;;;11.40;99.90;;;;;;5090837;28;20020;-46
2023/05/16 07:05:43;;;;;;;18.00;2.92;;;11.30;99.90;;;;;;5077071;28;20250;-46
2023/05/16 07:08:11;;;;;;;12.70;3.08;;;11.40;99.90;;;;;;5091255;28;20065;-46
2023/05/16 07:10:36;;;;;;;20.88;3.25;;;11.40;99.90;;;;;;5085782;28;20127;-47
2023/05/16 07:13:03;;;;;;;17.23;4.07;;;11.50;99.90;;;;;;5089831;28;20106;-46
2023/05/16 07:15:29;;;;;;;13.88;2.78;;;11.60;99.90;;;;;;5093396;28;20019;-46
2023/05/16 07:17:56;;;;;;;11.90;3.00;;;11.80;99.90;;;;;;5095479;28;20032;-47
2023/05/16 07:20:21;;;;;;;8.50;2.05;;;12.10;99.90;;;;;;5081443;28;20397;-46
2023/05/16 07:22:47;;;;;;;10.15;2.30;;;12.60;99.90;;;;;;5092943;28;20028;-47
2023/05/16 07:25:13;;;;;;;21.23;3.30;;;13.00;99.90;;;;;;5091677;28;20405;-47
2023/05/16 07:27:43;;;;;;;16.08;2.72;;;13.30;99.90;;;;;;5090277;28;20039;-47
2023/05/16 07:30:11;;;;;;;12.00;3.20;;;13.30;99.90;;;;;;5091317;28;20521;-47
2023/05/16 07:32:36;;;;;;;15.85;2.92;;;13.40;99.90;;;;;;5096748;28;20254;-47
2023/05/16 07:35:03;;;;;;;13.35;2.92;;;13.30;99.90;;;;;;5079342;28;20093;-47
2023/05/16 07:37:29;;;;;;;13.25;3.20;;;13.40;99.90;;;;;;5095878;28;20024;-46
2023/05/16 07:39:54;;;;;;;12.82;2.63;;;13.50;99.90;;;;;;5102309;28;20449;-46
2023/05/16 07:42:20;;;;;;;12.18;2.70;;;13.40;99.90;;;;;;5093470;28;20020;-47
2023/05/16 07:44:46;;;;;;;11.45;2.88;;;13.40;99.90;;;;;;5089923;28;20031;-47
2023/05/16 07:47:12;;;;;;;11.63;3.42;;;13.40;99.90;;;;;;5092705;28;20039;-47
2023/05/16 07:49:37;;;;;;;11.00;2.75;;;13.10;99.40;;;;;;5092514;28;20024;-47
2023/05/16 07:52:03;;;;;;;21.00;2.92;;;13.10;99.90;;;;;;5094085;28;20047;-47
2023/05/16 07:54:29;;;;;;;8.13;2.60;;;13.30;99.20;;;;;;5093385;28;20105;-47
2023/05/16 07:56:55;;;;;;;11.10;2.55;;;13.50;99.30;;;;;;5090158;28;20120;-48
2023/05/16 07:59:21;;;;;;;10.07;2.28;;;13.70;99.60;;;;;;5089735;28;20024;-48
2023/05/16 08:01:47;;;;;;;11.07;2.88;;;13.70;98.80;;;;;;5089668;28;20088;-47
2023/05/16 08:04:13;;;;;;;10.68;2.13;;;13.90;97.00;;;;;;5095352;28;20481;-47
2023/05/16 08:06:38;;;;;;;14.60;2.90;;;13.80;97.20;;;;;;5094633;28;20020;-47
2023/05/16 08:09:04;;;;;;;17.70;3.47;;;13.50;97.10;;;;;;5096918;28;20012;-47
2023/05/16 08:11:30;;;;;;;13.73;2.92;;;13.50;97.70;;;;;;5088429;28;20028;-49
2023/05/16 08:13:55;;;;;;;16.70;3.47;;;13.60;98.60;;;;;;5088431;28;20021;-49
2023/05/16 08:16:24;;;;;;;16.17;3.28;;;13.70;98.00;;;;;;5088973;28;20185;-47
2023/05/16 08:18:50;;;;;;;16.77;2.78;;;14.30;97.80;;;;;;5092569;28;20059;-50
2023/05/16 08:21:18;;;;;;;15.60;3.42;;;14.50;96.70;;;;;;5094262;28;20108;-50
2023/05/16 08:23:44;;;;;;;11.82;2.67;;;14.60;95.30;;;;;;5094167;28;20023;-49
2023/05/16 08:26:10;;;;;;;12.48;2.65;;;14.50;95.50;;;;;;5095530;28;20073;-50
2023/05/16 08:28:36;;;;;;;13.43;3.20;;;14.60;94.30;;;;;;5090119;28;20107;-47
2023/05/16 08:31:01;;;;;;;13.48;3.58;;;14.40;93.90;;;;;;5096114;28;20019;-47
2023/05/16 08:33:27;;;;;;;13.15;3.35;;;14.30;94.40;;;;;;5098065;28;20023;-47
2023/05/16 08:35:52;;;;;;;11.10;2.85;;;14.30;93.80;;;;;;5089820;28;20032;-47
2023/05/16 08:38:19;;;;;;;22.48;3.38;;;14.20;94.60;;;;;;5098182;28;20535;-47
2023/05/16 08:40:45;;;;;;;9.95;2.72;;;14.40;94.80;;;;;;5097709;28;20017;-49
2023/05/16 08:43:11;;;;;;;10.88;3.00;;;14.70;92.90;;;;;;5088338;28;20034;-47
2023/05/16 08:45:37;;;;;;;10.98;2.88;;;14.80;92.60;;;;;;5088231;28;20028;-48
2023/05/16 08:48:04;;;;;;;9.30;2.33;;;15.20;92.30;;;;;;5087790;28;20028;-47
2023/05/16 08:50:31;;;;;;;8.68;2.42;;;15.10;91.70;;;;;;5090066;28;20055;-47
2023/05/16 08:53:04;;;;;;;8.48;2.60;;;15.30;92.50;;;;;;5089300;28;20073;-47
2023/05/16 08:55:30;;;;;;;12.20;2.17;;;15.70;91.70;;;;;;5072309;28;20012;-49
2023/05/16 08:57:56;;;;;;;10.65;2.72;;;16.50;90.30;;;;;;5096730;28;20024;-47
2023/05/16 09:00:23;;;;;;;9.57;2.40;;;16.80;84.80;;;;;;5089578;28;20050;-48
2023/05/16 09:02:49;;;;;;;7.57;2.30;;;17.30;83.80;;;;;;5087894;28;20024;-48
2023/05/16 09:05:16;;;;;;;14.15;2.80;;;17.20;82.70;;;;;;5087627;28;20028;-47
2023/05/16 09:07:43;;;;;;;14.23;2.60;;;17.00;81.60;;;;;;5087005;28;20115;-45
2023/05/16 09:10:09;;;;;;;8.77;2.72;;;16.90;82.50;;;;;;5089780;28;20020;-45
2023/05/16 09:12:36;;;;;;;11.82;2.00;;;16.40;79.10;;;;;;5088124;28;20031;-47
2023/05/16 09:15:03;;;;;;;7.95;2.10;;;16.40;80.00;;;;;;5089100;28;20262;-46
2023/05/16 09:17:42;;;;;;;8.38;2.22;;;16.30;80.10;;;;;;5090329;28;20024;-47
2023/05/16 09:20:13;;;;;;;9.30;2.40;;;16.40;80.70;;;;;;5091771;28;20085;-43
2023/05/16 09:22:38;;;;;;;;;;;16.60;77.40;;;;;;5105159;28;20031;-43
2023/05/16 09:25:04;;;;;;;9.63;2.00;;;16.70;78.00;;;;;;5096432;28;20389;-44
2023/05/16 09:27:31;;;;;;;13.25;2.75;;;16.60;78.30;;;;;;5102460;28;20028;-43
2023/05/16 09:29:57;;;;;;;9.27;2.20;;;17.00;77.00;;;;;;5099492;28;20024;-44
2023/05/16 09:32:24;;;;;;;6.85;2.05;;;17.80;74.50;;;;;;5102869;28;20024;-44
2023/05/16 09:34:52;;;;;;;8.63;2.13;;;18.40;71.90;;;;;;5095134;28;20492;-43
2023/05/16 09:37:18;;;;;;;8.82;2.30;;;19.50;69.60;;;;;;5099224;28;20103;-44
2023/05/16 09:39:49;;;;;;;8.70;2.30;;;20.30;69.90;;;;;;5102412;28;20021;-43
2023/05/16 09:42:15;;;;;;;10.25;2.60;;;20.10;67.10;;;;;;5089858;28;20017;-45
2023/05/16 09:44:46;;;;;;;9.60;2.08;;;19.40;67.40;;;;;;5095612;28;20115;-44
2023/05/16 09:47:15;;;;;;;11.65;1.83;;;20.00;63.30;;;;;;5097894;28;20027;-43
2023/05/16 09:49:41;;;;;;;9.10;2.67;;;20.10;63.20;;;;;;5100092;28;20021;-44
2023/05/16 09:52:06;;;;;;;6.97;2.50;;;20.40;61.40;;;;;;5104711;28;20027;-44
2023/05/16 09:54:33;;;;;;;7.95;2.13;;;21.20;61.30;;;;;;5097951;28;20032;-43
2023/05/16 09:57:00;;;;;;;5.40;2.30;;;22.60;62.50;;;;;;5103901;28;20026;-44
2023/05/16 09:59:29;;;;;;;8.02;2.50;;;23.10;60.50;;;;;;5103907;28;20512;-45
2023/05/16 10:02:00;;;;;;;8.43;2.50;;;22.80;55.70;;;;;;5098813;28;20035;-45
2023/05/16 10:04:26;;;;;;;7.70;2.35;;;23.10;57.50;;;;;;5102510;28;20311;-46
2023/05/16 10:06:55;;;;;;;7.22;1.80;;;23.20;56.80;;;;;;5098523;28;20012;-44
2023/05/16 10:09:21;;;;;;;9.30;2.10;;;23.40;57.70;;;;;;5091941;28;20058;-46
2023/05/16 10:11:48;;;;;;;7.63;2.40;;;23.80;54.20;;;;;;5098745;28;20019;-45
2023/05/16 10:14:16;;;;;;;5.95;1.60;;;23.90;51.70;;;;;;5103194;28;20437;-45
2023/05/16 10:16:45;;;;;;;6.00;2.22;;;24.80;50.70;;;;;;5095646;28;20370;-44
2023/05/16 10:19:11;;;;;;;10.43;1.95;;;24.90;52.10;;;;;;5094768;28;20486;-45
2023/05/16 10:21:38;;;;;;;7.18;2.05;;;25.30;48.60;;;;;;5102385;28;20075;-44
2023/05/16 10:24:10;;;;;;;8.68;1.77;;;25.10;49.10;;;;;;5103095;28;20084;-45
2023/05/16 10:26:35;;;;;;;6.85;1.92;;;25.00;51.60;;;;;;5103079;28;20024;-44
2023/05/16 10:29:02;;;;;;;7.50;1.85;;;23.90;49.60;;;;;;5103351;28;20065;-46
2023/05/16 10:31:28;;;;;;;5.70;1.60;;;24.00;49.60;;;;;;5101421;28;20043;-47
2023/05/16 10:33:56;;;;;;;5.57;1.58;;;24.90;50.10;;;;;;5109308;28;20023;-43
2023/05/16 10:36:22;;;;;;;4.68;1.45;;;24.90;48.30;;;;;;5100118;28;20409;-44
2023/05/16 10:38:48;;;;;;;5.70;2.05;;;25.20;48.70;;;;;;5107165;28;20020;-44
2023/05/16 10:41:14;;;;;;;5.25;1.55;;;25.00;49.50;;;;;;5098041;28;20465;-45
2023/05/16 10:43:44;;;;;;;7.50;1.67;;;24.80;48.10;;;;;;5099361;28;20035;-45
2023/05/16 10:46:10;;;;;;;5.80;1.40;;;24.70;48.00;;;;;;5104487;28;20519;-46
2023/05/16 10:48:40;;;;;;;4.55;1.65;;;24.90;50.20;;;;;;5106199;28;20035;-43
2023/05/16 10:51:32;;;;;;;5.25;1.67;;;26.00;46.10;;;;;;5096927;28;20023;-43
2023/05/16 10:54:05;;;;;;;6.45;1.42;;;25.50;44.50;;;;;;5101071;28;20028;-45
2023/05/16 10:56:32;;;;;;;11.10;1.77;;;25.10;47.50;;;;;;5099164;28;20030;-46
2023/05/16 10:58:58;;;;;;;4.20;1.50;;;23.60;48.90;;;;;;5102816;28;20019;-44
2023/05/16 11:01:26;;;;;;;6.43;1.42;;;24.20;49.10;;;;;;5101751;28;20072;-43
2023/05/16 11:04:03;;;;;;;7.32;1.52;;;25.10;45.90;;;;;;5099423;28;20027;-42
2023/05/16 11:06:44;;;;;;;3.35;1.20;;;26.20;46.40;;;;;;5103770;28;20058;-42
2023/05/16 11:09:12;;;;;;;5.97;1.63;;;25.20;43.80;;;;;;5091821;28;20475;-42
2023/05/16 11:11:45;;;;;;;5.13;1.55;;;24.30;44.30;;;;;;5107299;28;20316;-43
2023/05/16 11:14:21;;;;;;;3.80;1.35;;;24.00;46.50;;;;;;5102701;28;20026;-46
2023/05/16 11:17:00;;;;;;;6.55;1.80;;;25.10;48.60;;;;;;5099060;28;20024;-46
2023/05/16 11:19:39;;;;;;;7.43;1.52;;;25.60;45.00;;;;;;5108446;28;20078;-47
2023/05/16 11:22:24;;;;;;;3.42;1.40;;;24.60;46.90;;;;;;5093065;28;20040;-43
2023/05/16 11:25:04;;;;;;;10.27;1.80;;;24.40;45.70;;;;;;5098835;28;20057;-43
2023/05/16 11:27:40;;;;;;;6.60;1.67;;;24.40;45.90;;;;;;5103355;28;20307;-44
2023/05/16 11:30:06;;;;;;;4.93;1.45;;;23.50;46.80;;;;;;5097159;28;20047;-44
2023/05/16 11:32:36;;;;;;;5.10;1.65;;;22.70;49.30;;;;;;5099175;28;20055;-44
2023/05/16 11:35:03;;;;;;;7.20;1.88;;;21.70;51.40;;;;;;5105040;28;20012;-42
2023/05/16 11:37:28;;;;;;;4.28;1.65;;;21.60;52.20;;;;;;5096327;28;20031;-43
2023/05/16 11:40:02;;;;;;;7.10;1.70;;;22.30;54.60;;;;;;5104182;28;20027;-43
2023/05/16 11:42:34;;;;;;;6.65;1.92;;;23.00;49.10;;;;;;5106183;28;20028;-43
2023/05/16 11:45:07;;;;;;;7.18;2.00;;;23.30;50.20;;;;;;5086200;28;20019;-43
2023/05/16 11:47:35;;;;;;;5.57;1.45;;;23.80;47.60;;;;;;5104327;28;20063;-42
2023/05/16 11:50:08;;;;;;;6.78;1.50;;;23.30;45.90;;;;;;5100534;28;20024;-43
2023/05/16 11:52:34;;;;;;;3.53;1.40;;;23.60;46.80;;;;;;5100120;28;20044;-42
2023/05/16 11:55:00;;;;;;;4.05;1.38;;;24.10;51.10;;;;;;5108651;28;20062;-42
2023/05/16 11:57:26;;;;;;;3.75;1.17;;;23.50;47.70;;;;;;5098973;28;20376;-44
2023/05/16 11:59:53;;;;;;;4.20;1.20;;;23.10;46.70;;;;;;5103201;28;20040;-44
2023/05/16 12:02:19;;;;;;;5.32;1.30;;;23.10;48.60;;;;;;5088195;28;20018;-43
2023/05/16 12:04:49;;;;;;;6.07;1.58;;;22.00;47.20;;;;;;5104683;28;20023;-43
2023/05/16 12:07:15;;;;;;;3.70;1.48;;;21.30;50.50;;;;;;5095274;28;20019;-44
2023/05/16 12:09:40;;;;;;;3.92;1.40;;;20.50;53.80;;;;;;5101992;28;20020;-43
2023/05/16 12:12:06;;;;;;;5.20;1.33;;;19.90;53.80;;;;;;5099666;28;20023;-44
2023/05/16 12:14:32;;;;;;;5.88;1.75;;;19.40;54.60;;;;;;5103012;28;20023;-43
2023/05/16 12:16:58;;;;;;;7.38;1.85;;;19.00;55.30;;;;;;5089487;28;20020;-42
2023/05/16 12:19:24;;;;;;;6.80;1.80;;;19.60;58.60;;;;;;5103463;28;20020;-42
2023/05/16 12:21:53;;;;;;;7.80;1.67;;;19.80;56.60;;;;;;5096686;28;20073;-42
2023/05/16 12:24:19;;;;;;;5.43;1.50;;;20.00;54.30;;;;;;5103110;28;20019;-44
2023/05/16 12:26:45;;;;;;;5.90;1.23;;;19.90;53.80;;;;;;5100907;28;20023;-43
2023/05/16 12:29:11;;;;;;;5.57;1.73;;;19.90;55.10;;;;;;5107113;28;20455;-43
2023/05/16 12:31:39;;;;;;;7.25;1.55;;;19.70;51.90;;;;;;5097187;28;20019;-46
2023/05/16 12:34:13;;;;;;;4.68;1.30;;;19.70;55.60;;;;;;5106091;28;20505;-42
2023/05/16 12:36:38;;;;;;;7.43;1.52;;;19.50;53.10;;;;;;5098758;28;20028;-44
2023/05/16 12:39:04;;;;;;;7.32;1.40;;;19.00;54.60;;;;;;5102798;28;20064;-43
2023/05/16 12:41:30;;;;;;;6.80;1.60;;;19.00;54.60;;;;;;5103474;28;20027;-41
2023/05/16 12:44:10;;;;;;;9.48;1.70;;;18.70;55.90;;;;;;5100368;28;20110;-41